createdAt,value
2022-08-07T00:00:14.847Z,23.26
2022-08-07T00:02:48.571Z,23.22
2022-08-07T00:05:18.616Z,23.20
2022-08-07T00:07:48.636Z,23.21
2022-08-07T00:10:31.584Z,23.19
2022-08-07T00:13:17.478Z,23.17
2022-08-07T00:15:55.198Z,23.14
2022-08-07T00:18:28.433Z,23.11
2022-08-07T00:21:01.497Z,23.06
2022-08-07T00:23:33.223Z,23.05
2022-08-07T00:26:13.317Z,23.04
2022-08-07T00:28:58.901Z,23.08
2022-08-07T00:31:37.364Z,23.06
2022-08-07T00:34:09.688Z,23.05
2022-08-07T00:36:42.994Z,23.02
2022-08-07T00:39:16.472Z,22.97
2022-08-07T00:42:05.001Z,22.92
2022-08-07T00:44:35.675Z,22.93
2022-08-07T00:48:07.556Z,22.91
2022-08-07T00:50:19.825Z,22.89
2022-08-07T00:52:51.253Z,22.90
2022-08-07T00:55:25.493Z,22.85
2022-08-07T00:58:16.063Z,22.77
2022-08-07T01:00:53.568Z,22.69
2022-08-07T01:03:55.708Z,22.66
2022-08-07T01:06:15.855Z,22.64
2022-08-07T01:08:53.229Z,22.60
2022-08-07T01:12:23.478Z,22.58
2022-08-07T01:14:17.090Z,22.58
2022-08-07T01:16:51.514Z,22.55
2022-08-07T01:19:24.886Z,22.52
2022-08-07T01:21:59.272Z,22.51
2022-08-07T01:24:35.376Z,22.50
2022-08-07T01:27:06.516Z,22.52
2022-08-07T01:29:50.641Z,22.54
2022-08-07T01:32:23.057Z,22.54
2022-08-07T01:34:57.302Z,22.51
2022-08-07T01:37:30.462Z,22.48
2022-08-07T01:40:06.689Z,22.45
2022-08-07T01:42:57.564Z,22.45
2022-08-07T01:45:37.285Z,22.42
2022-08-07T01:48:19.710Z,22.37
2022-08-07T01:50:57.291Z,22.32
2022-08-07T01:54:09.241Z,22.29
2022-08-07T01:56:28.965Z,22.29
2022-08-07T01:59:08.047Z,22.25
2022-08-07T02:02:00.160Z,22.25
2022-08-07T02:04:55.670Z,22.21
2022-08-07T02:07:36.241Z,22.20
2022-08-07T02:10:27.522Z,22.19
2022-08-07T02:13:04.154Z,22.15
2022-08-07T02:15:54.567Z,22.15
2022-08-07T02:18:46.824Z,22.12
2022-08-07T02:21:19.061Z,22.11
2022-08-07T02:23:49.677Z,22.07
2022-08-07T02:26:33.857Z,22.03
2022-08-07T02:29:07.663Z,22.00
2022-08-07T02:31:45.663Z,21.97
2022-08-07T02:34:18.969Z,21.93
2022-08-07T02:36:55.452Z,21.87
2022-08-07T02:39:43.003Z,21.87
2022-08-07T02:42:21.338Z,21.87
2022-08-07T02:44:55.530Z,21.85
2022-08-07T02:47:44.895Z,21.84
2022-08-07T02:50:18.804Z,21.85
2022-08-07T02:53:01.020Z,21.81
2022-08-07T02:56:04.371Z,21.80
2022-08-07T02:58:33.510Z,21.78
2022-08-07T03:01:10.435Z,21.73
2022-08-07T03:03:50.997Z,21.69
2022-08-07T03:06:33.046Z,21.62
2022-08-07T03:09:05.685Z,21.58
2022-08-07T03:11:38.800Z,21.55
2022-08-07T03:14:15.089Z,21.55
2022-08-07T03:16:45.613Z,21.53
2022-08-07T03:19:15.691Z,21.52
2022-08-07T03:21:50.610Z,21.48
2022-08-07T03:24:26.858Z,21.46
2022-08-07T03:27:04.658Z,21.41
2022-08-07T03:29:51.062Z,21.36
2022-08-07T03:32:29.790Z,21.34
2022-08-07T03:35:17.836Z,21.32
2022-08-07T03:37:55.157Z,21.31
2022-08-07T03:40:36.800Z,21.29
2022-08-07T03:43:14.579Z,21.28
2022-08-07T03:45:52.049Z,21.24
2022-08-07T03:48:29.790Z,21.26
2022-08-07T03:51:01.010Z,21.26
2022-08-07T03:54:32.821Z,21.25
2022-08-07T03:56:33.307Z,21.23
2022-08-07T03:59:09.888Z,21.22
2022-08-07T04:01:49.188Z,21.19
2022-08-07T04:04:25.110Z,21.19
2022-08-07T04:07:00.591Z,21.17
2022-08-07T04:09:45.153Z,21.13
2022-08-07T04:12:26.703Z,21.16
2022-08-07T04:15:01.082Z,21.16
2022-08-07T04:18:11.286Z,21.19
2022-08-07T04:20:27.763Z,21.24
2022-08-07T04:23:01.583Z,21.27
2022-08-07T04:25:35.933Z,21.31
2022-08-07T04:28:13.307Z,21.34
2022-08-07T04:30:57.250Z,21.38
2022-08-07T04:33:38.870Z,21.42
2022-08-07T04:36:11.139Z,21.44
2022-08-07T04:38:42.273Z,21.49
2022-08-07T04:41:18.232Z,21.56
2022-08-07T04:44:14.472Z,21.59
2022-08-07T04:47:04.705Z,21.63
2022-08-07T04:49:57.825Z,21.71
2022-08-07T04:52:51.070Z,21.75
2022-08-07T04:58:23.669Z,21.82
2022-08-07T04:58:42.306Z,21.90
2022-08-07T05:01:20.693Z,21.95
2022-08-07T05:04:06.816Z,21.99
2022-08-07T05:06:51.479Z,22.06
2022-08-07T05:09:45.589Z,22.13
2022-08-07T05:12:26.994Z,22.18
2022-08-07T05:15:21.596Z,22.22
2022-08-07T05:18:01.586Z,22.27
2022-08-07T05:20:46.657Z,22.33
2022-08-07T05:23:31.031Z,22.38
2022-08-07T05:26:18.732Z,22.49
2022-08-07T05:28:58.999Z,22.57
2022-08-07T05:31:38.548Z,22.66
2022-08-07T05:34:16.372Z,22.77
2022-08-07T05:36:52.970Z,22.87
2022-08-07T05:40:06.374Z,22.95
2022-08-07T05:42:33.383Z,23.06
2022-08-07T05:45:26.221Z,23.15
2022-08-07T05:48:03.175Z,23.22
2022-08-07T05:50:47.367Z,23.30
2022-08-07T05:54:12.983Z,23.37
2022-08-07T05:56:16.173Z,23.44
2022-08-07T05:58:52.726Z,23.52
2022-08-07T06:01:34.841Z,23.56
2022-08-07T06:04:08.918Z,23.62
2022-08-07T06:06:46.041Z,23.66
2022-08-07T06:09:20.286Z,23.69
2022-08-07T06:12:18.473Z,23.77
2022-08-07T06:15:02.961Z,23.88
2022-08-07T06:17:41.167Z,23.98
2022-08-07T06:20:25.560Z,24.11
2022-08-07T06:23:46.663Z,24.20
2022-08-07T06:26:04.811Z,24.27
2022-08-07T06:28:52.815Z,24.29
2022-08-07T06:31:46.677Z,24.34
2022-08-07T06:34:23.024Z,24.42
2022-08-07T06:36:56.129Z,24.49
2022-08-07T06:40:17.951Z,24.59
2022-08-07T06:42:35.252Z,24.70
2022-08-07T06:45:19.677Z,24.71
2022-08-07T06:48:00.097Z,24.76
2022-08-07T06:50:39.674Z,24.79
2022-08-07T06:53:18.539Z,24.80
2022-08-07T06:56:15.517Z,24.90
2022-08-07T07:00:13.716Z,24.90
2022-08-07T07:01:51.130Z,24.90
2022-08-07T07:04:28.270Z,24.89
2022-08-07T07:07:19.075Z,24.82
2022-08-07T07:09:57.128Z,24.88
2022-08-07T07:12:37.998Z,24.89
2022-08-07T07:15:26.374Z,25.08
2022-08-07T07:18:12.898Z,25.23
2022-08-07T07:20:49.072Z,25.36
2022-08-07T07:24:08.443Z,25.41
2022-08-07T07:26:33.836Z,25.46
2022-08-07T07:29:39.079Z,25.41
2022-08-07T07:32:04.700Z,25.41
2022-08-07T07:34:41.507Z,25.53
2022-08-07T07:37:21.470Z,25.66
2022-08-07T07:39:55.575Z,25.69
2022-08-07T07:42:32.754Z,25.82
2022-08-07T07:45:04.539Z,25.94
2022-08-07T07:47:51.851Z,26.02
2022-08-07T07:50:34.580Z,26.11
2022-08-07T07:53:20.499Z,26.08
2022-08-07T07:55:57.774Z,26.12
2022-08-07T07:58:40.538Z,26.28
2022-08-07T08:02:02.856Z,26.36
2022-08-07T08:04:10.163Z,26.45
2022-08-07T08:06:52.040Z,26.46
2022-08-07T08:09:29.523Z,26.62
2022-08-07T08:12:05.978Z,26.75
2022-08-07T08:14:37.401Z,26.81
2022-08-07T08:17:55.654Z,26.82
2022-08-07T08:20:17.829Z,26.88
2022-08-07T08:23:09.797Z,26.97
2022-08-07T08:25:56.225Z,27.00
2022-08-07T08:28:38.518Z,26.93
2022-08-07T08:31:18.311Z,26.81
2022-08-07T08:34:04.110Z,26.80
2022-08-07T08:36:36.912Z,26.80
2022-08-07T08:39:11.877Z,26.83
2022-08-07T08:41:57.286Z,26.94
2022-08-07T08:44:37.284Z,27.13
2022-08-07T08:47:25.053Z,27.27
2022-08-07T08:50:06.474Z,27.20
2022-08-07T08:52:40.815Z,27.10
2022-08-07T08:55:54.236Z,27.07
2022-08-07T08:58:29.978Z,27.26
2022-08-07T09:01:14.739Z,27.40
2022-08-07T09:03:55.645Z,27.57
2022-08-07T09:06:47.718Z,27.75
2022-08-07T09:09:38.554Z,27.86
2022-08-07T09:12:20.246Z,28.04
2022-08-07T09:16:20.575Z,28.22
2022-08-07T09:18:22.554Z,28.42
2022-08-07T09:21:02.310Z,28.58
2022-08-07T09:24:33.685Z,28.73
2022-08-07T09:26:51.051Z,28.74
2022-08-07T09:30:04.372Z,28.84
2022-08-07T09:32:31.508Z,28.95
2022-08-07T09:36:04.889Z,28.92
2022-08-07T09:38:12.330Z,29.02
2022-08-07T09:40:55.834Z,29.17
2022-08-07T09:44:03.054Z,29.41
2022-08-07T09:47:52.378Z,29.38
2022-08-07T09:50:01.223Z,29.38
2022-08-07T09:52:42.942Z,29.08
2022-08-07T09:55:29.757Z,28.75
2022-08-07T09:58:32.879Z,28.69
2022-08-07T10:01:52.374Z,28.68
2022-08-07T10:04:38.124Z,28.45
2022-08-07T10:07:53.055Z,28.37
2022-08-07T10:11:07.556Z,28.51
2022-08-07T10:14:00.686Z,28.78
2022-08-07T10:17:03.131Z,28.66
2022-08-07T10:20:01.000Z,28.50
2022-08-07T10:22:50.837Z,28.38
2022-08-07T10:25:42.724Z,28.30
2022-08-07T10:28:49.658Z,28.24
2022-08-07T10:31:40.929Z,28.15
2022-08-07T10:34:31.979Z,28.09
2022-08-07T10:37:26.330Z,28.02
2022-08-07T10:40:21.154Z,28.03
2022-08-07T10:43:03.589Z,27.99
2022-08-07T10:45:57.156Z,27.97
2022-08-07T10:48:39.209Z,27.92
2022-08-07T10:51:16.591Z,28.04
2022-08-07T10:54:16.065Z,28.38
2022-08-07T10:57:00.174Z,28.72
2022-08-07T10:59:45.326Z,28.98
2022-08-07T11:02:33.358Z,29.22
2022-08-07T11:05:16.590Z,29.23
2022-08-07T11:07:59.491Z,29.12
2022-08-07T11:10:43.667Z,29.00
2022-08-07T11:14:42.116Z,29.17
2022-08-07T11:16:25.582Z,29.15
2022-08-07T11:19:08.166Z,29.10
2022-08-07T11:21:47.296Z,28.95
2022-08-07T11:24:24.897Z,28.98
2022-08-07T11:27:04.775Z,29.12
2022-08-07T11:29:48.290Z,29.32
2022-08-07T11:32:31.091Z,29.52
2022-08-07T11:35:03.280Z,29.68
2022-08-07T11:38:10.526Z,29.73
2022-08-07T11:40:50.687Z,29.86
2022-08-07T11:43:41.596Z,29.96
2022-08-07T11:46:31.381Z,30.04
2022-08-07T11:49:50.368Z,30.12
2022-08-07T11:52:29.524Z,30.14
2022-08-07T11:56:08.692Z,29.97
2022-08-07T11:58:16.504Z,29.75
2022-08-07T12:01:04.442Z,29.51
2022-08-07T12:03:52.848Z,29.37
2022-08-07T12:06:39.223Z,29.25
2022-08-07T12:09:23.385Z,29.16
2022-08-07T12:12:10.192Z,29.08
2022-08-07T12:14:55.692Z,29.09
2022-08-07T12:17:59.333Z,29.28
2022-08-07T12:20:37.963Z,29.38
2022-08-07T12:24:07.298Z,29.22
2022-08-07T12:26:40.595Z,29.28
2022-08-07T12:29:38.333Z,29.38
2022-08-07T12:32:17.227Z,29.42
2022-08-07T12:34:56.238Z,29.45
2022-08-07T12:38:09.698Z,29.50
2022-08-07T12:40:47.481Z,29.65
2022-08-07T12:44:02.942Z,29.76
2022-08-07T12:46:26.448Z,29.78
2022-08-07T12:49:39.588Z,29.56
2022-08-07T12:52:14.377Z,29.40
2022-08-07T12:54:55.574Z,29.46
2022-08-07T12:58:01.327Z,29.53
2022-08-07T13:00:34.580Z,29.56
2022-08-07T13:03:52.780Z,29.57
2022-08-07T13:06:29.390Z,29.58
2022-08-07T13:09:33.388Z,29.51
2022-08-07T13:12:13.275Z,29.43
2022-08-07T13:14:55.209Z,29.35
2022-08-07T13:17:40.806Z,29.22
2022-08-07T13:20:18.373Z,29.13
2022-08-07T13:22:58.393Z,28.96
2022-08-07T13:25:43.161Z,28.87
2022-08-07T13:28:25.167Z,28.85
2022-08-07T13:31:02.101Z,28.76
2022-08-07T13:34:30.882Z,28.84
2022-08-07T13:36:48.072Z,28.94
2022-08-07T13:39:49.122Z,29.00
2022-08-07T13:42:24.756Z,29.01
2022-08-07T13:45:20.619Z,29.03
2022-08-07T13:48:07.732Z,29.04
2022-08-07T13:50:44.466Z,29.05
2022-08-07T13:53:35.859Z,29.06
2022-08-07T13:56:35.734Z,29.08
2022-08-07T13:59:16.690Z,29.08
2022-08-07T14:02:03.438Z,29.10
2022-08-07T14:04:48.912Z,29.11
2022-08-07T14:07:25.019Z,29.08
2022-08-07T14:10:14.898Z,29.07
2022-08-07T14:12:55.995Z,29.07
2022-08-07T14:15:40.152Z,29.05
2022-08-07T14:18:28.910Z,29.07
2022-08-07T14:21:21.071Z,29.08
2022-08-07T14:24:02.333Z,29.11
2022-08-07T14:26:40.745Z,29.11
2022-08-07T14:30:05.847Z,29.12
2022-08-07T14:32:20.535Z,29.09
2022-08-07T14:34:56.323Z,29.04
2022-08-07T14:37:36.360Z,28.99
2022-08-07T14:40:27.259Z,28.86
2022-08-07T14:43:57.074Z,28.84
2022-08-07T14:45:54.686Z,28.86
2022-08-07T14:48:32.627Z,28.82
2022-08-07T14:51:07.530Z,28.80
2022-08-07T14:54:05.797Z,28.76
2022-08-07T14:56:43.822Z,28.73
2022-08-07T15:00:03.521Z,28.69
2022-08-07T15:05:20.253Z,28.62
2022-08-07T15:07:55.224Z,28.58
2022-08-07T15:13:25.286Z,28.54
2022-08-07T15:16:00.955Z,28.52
2022-08-07T15:18:36.197Z,28.50
2022-08-07T15:21:44.379Z,28.54
2022-08-07T15:27:11.451Z,28.56
2022-08-07T15:30:09.681Z,28.57
2022-08-07T15:32:39.424Z,28.52
2022-08-07T15:35:16.781Z,28.49
2022-08-07T15:38:04.504Z,28.45
2022-08-07T15:41:22.995Z,28.44
2022-08-07T15:43:55.938Z,28.48
2022-08-07T15:46:32.314Z,28.53
2022-08-07T15:49:14.437Z,28.54
2022-08-07T15:54:39.724Z,28.57
2022-08-07T15:57:39.127Z,28.60
2022-08-07T16:00:06.296Z,28.62
2022-08-07T16:02:46.989Z,28.60
2022-08-07T16:05:20.367Z,28.59
2022-08-07T16:08:33.270Z,28.61
2022-08-07T16:11:03.957Z,28.58
2022-08-07T16:14:03.191Z,28.56
2022-08-07T16:16:56.788Z,28.53
2022-08-07T16:19:42.229Z,28.48
2022-08-07T16:22:54.542Z,28.44
2022-08-07T16:25:54.580Z,28.41
2022-08-07T16:29:18.246Z,28.38
2022-08-07T16:31:58.090Z,28.36
2022-08-07T16:34:39.592Z,28.32
2022-08-07T16:38:04.748Z,28.29
2022-08-07T16:41:01.774Z,28.29
2022-08-07T16:44:05.991Z,28.28
2022-08-07T16:47:28.863Z,28.25
2022-08-07T16:50:37.128Z,28.25
2022-08-07T16:54:03.005Z,28.26
2022-08-07T16:56:20.644Z,28.26
2022-08-07T16:59:15.016Z,28.22
2022-08-07T17:01:59.592Z,28.20
2022-08-07T17:04:57.415Z,28.20
2022-08-07T17:07:51.427Z,28.22
2022-08-07T17:10:36.265Z,28.25
2022-08-07T17:13:41.102Z,28.25
2022-08-07T17:16:25.557Z,28.27
2022-08-07T17:19:04.943Z,28.25
2022-08-07T17:21:50.670Z,28.23
2022-08-07T17:24:49.890Z,28.21
2022-08-07T17:27:37.129Z,28.21
2022-08-07T17:30:27.037Z,28.19
2022-08-07T17:34:32.748Z,28.15
2022-08-07T17:36:06.224Z,28.14
2022-08-07T17:38:55.374Z,28.12
2022-08-07T17:42:04.128Z,28.11
2022-08-07T17:44:33.933Z,28.11
2022-08-07T17:47:16.825Z,28.08
2022-08-07T17:49:56.145Z,28.05
2022-08-07T17:52:33.878Z,28.05
2022-08-07T17:55:13.367Z,28.02
2022-08-07T17:57:59.012Z,28.01
2022-08-07T18:00:48.875Z,28.01
2022-08-07T18:03:28.511Z,28.00
2022-08-07T18:06:38.694Z,28.01
2022-08-07T18:09:48.284Z,27.99
2022-08-07T18:12:30.621Z,27.98
2022-08-07T18:15:08.753Z,27.95
2022-08-07T18:18:47.449Z,27.94
2022-08-07T18:21:11.698Z,27.92
2022-08-07T18:23:57.238Z,27.86
2022-08-07T18:26:59.647Z,27.81
2022-08-07T18:30:04.671Z,27.79
2022-08-07T18:33:15.386Z,27.78
2022-08-07T18:35:57.431Z,27.75
2022-08-07T18:38:55.109Z,27.70
2022-08-07T18:41:48.030Z,27.67
2022-08-07T18:45:39.710Z,27.62
2022-08-07T18:47:44.588Z,27.59
2022-08-07T18:50:45.395Z,27.54
2022-08-07T18:53:36.987Z,27.50
2022-08-07T18:56:16.972Z,27.46
2022-08-07T18:59:46.712Z,27.41
2022-08-07T19:02:17.989Z,27.37
2022-08-07T19:05:15.460Z,27.36
2022-08-07T19:07:59.350Z,27.30
2022-08-07T19:10:39.795Z,27.27
2022-08-07T19:13:27.417Z,27.25
2022-08-07T19:16:43.018Z,27.20
2022-08-07T19:19:03.203Z,27.17
2022-08-07T19:21:56.168Z,27.14
2022-08-07T19:24:38.026Z,27.11
2022-08-07T19:28:29.663Z,27.06
2022-08-07T19:31:02.235Z,27.01
2022-08-07T19:33:12.809Z,27.00
2022-08-07T19:35:48.951Z,26.96
2022-08-07T19:38:22.625Z,26.94
2022-08-07T19:40:54.440Z,26.91
2022-08-07T19:43:43.645Z,26.86
2022-08-07T19:46:18.992Z,26.83
2022-08-07T19:48:54.637Z,26.76
2022-08-07T19:51:51.311Z,26.76
2022-08-07T19:54:35.150Z,26.73
2022-08-07T19:58:01.027Z,26.73
2022-08-07T20:00:10.591Z,26.68
2022-08-07T20:02:51.927Z,26.61
2022-08-07T20:05:29.596Z,26.59
2022-08-07T20:08:06.726Z,26.56
2022-08-07T20:10:55.629Z,26.54
2022-08-07T20:13:33.068Z,26.50
2022-08-07T20:16:15.667Z,26.46
2022-08-07T20:18:52.943Z,26.43
2022-08-07T20:21:25.147Z,26.37
2022-08-07T20:24:08.060Z,26.36
2022-08-07T20:26:49.978Z,26.36
2022-08-07T20:29:47.792Z,26.34
2022-08-07T20:32:22.348Z,26.31
2022-08-07T20:34:58.788Z,26.28
2022-08-07T20:37:37.146Z,26.24
2022-08-07T20:40:32.437Z,26.24
2022-08-07T20:43:09.494Z,26.22
2022-08-07T20:46:25.606Z,26.17
2022-08-07T20:48:57.865Z,26.17
2022-08-07T20:51:36.018Z,26.15
2022-08-07T20:54:12.211Z,26.12
2022-08-07T20:56:52.885Z,26.07
2022-08-07T21:00:04.657Z,26.05
2022-08-07T21:02:31.513Z,26.02
2022-08-07T21:05:04.557Z,25.99
2022-08-07T21:07:42.198Z,25.97
2022-08-07T21:10:25.237Z,25.93
2022-08-07T21:13:24.738Z,25.91
2022-08-07T21:16:11.759Z,25.90
2022-08-07T21:18:46.010Z,25.82
2022-08-07T21:21:18.159Z,25.79
2022-08-07T21:23:59.373Z,25.75
2022-08-07T21:26:36.832Z,25.74
2022-08-07T21:29:18.781Z,25.71
2022-08-07T21:32:43.760Z,25.70
2022-08-07T21:35:00.626Z,25.69
2022-08-07T21:37:58.054Z,25.66
2022-08-07T21:40:39.492Z,25.62
2022-08-07T21:43:13.485Z,25.59
2022-08-07T21:46:10.324Z,25.54
2022-08-07T21:48:56.444Z,25.51
2022-08-07T21:51:51.403Z,25.46
2022-08-07T21:54:38.760Z,25.42
2022-08-07T21:57:44.697Z,25.39
2022-08-07T22:00:22.649Z,25.37
2022-08-07T22:03:06.190Z,25.31
2022-08-07T22:05:48.623Z,25.24
2022-08-07T22:08:21.482Z,25.22
2022-08-07T22:11:11.220Z,25.19
2022-08-07T22:13:51.056Z,25.20
2022-08-07T22:16:42.655Z,25.15
2022-08-07T22:19:29.769Z,25.13
2022-08-07T22:22:27.405Z,25.10
2022-08-07T22:25:08.404Z,25.06
2022-08-07T22:28:07.675Z,25.02
2022-08-07T22:30:51.943Z,25.01
2022-08-07T22:33:52.750Z,24.98
2022-08-07T22:36:31.517Z,24.97
2022-08-07T22:39:07.081Z,24.96
2022-08-07T22:42:03.153Z,24.92
2022-08-07T22:44:36.767Z,24.90
2022-08-07T22:47:52.356Z,24.87
2022-08-07T22:50:39.073Z,24.87
2022-08-07T22:54:05.413Z,24.85
2022-08-07T22:56:28.837Z,24.86
2022-08-07T22:59:44.682Z,24.83
2022-08-07T23:02:32.936Z,24.82
2022-08-07T23:06:07.424Z,24.79
2022-08-07T23:08:51.622Z,24.76
2022-08-07T23:11:41.238Z,24.72
2022-08-07T23:14:30.523Z,24.70
2022-08-07T23:17:25.228Z,24.69
2022-08-07T23:20:40.719Z,24.67
2022-08-07T23:24:05.394Z,24.67
2022-08-07T23:26:50.722Z,24.62
2022-08-07T23:30:39.546Z,24.59
2022-08-07T23:34:34.420Z,24.55
2022-08-07T23:35:57.404Z,24.54
2022-08-07T23:38:42.843Z,24.50
2022-08-07T23:41:47.531Z,24.45
2022-08-07T23:44:43.472Z,24.43
2022-08-07T23:47:31.511Z,24.39
2022-08-07T23:50:29.734Z,24.35
2022-08-07T23:53:08.442Z,24.34
2022-08-07T23:55:56.224Z,24.29
2022-08-07T23:58:35.085Z,24.28
